sim
Sign-in with your pilot id or email,
or register
Callsign
Passwort

Schedule Details

Flight Number: DLH810 (3)
Departure: Frankfurt Airport (EDDF) at 08:35
Arrival: Gothenburg Landvetter Airport (ESGG) at 10:15
Route: Lufthansa Passenger Schedule. Enter filed route here before submitting Pirep.

Weather Information
Getting current METAR information for EDDF 271720Z 18008KT 9999 FEW020 10/05 Q1009 NOSIG
Getting current METAR information for ESGG 271720Z 18014KT 9999 SCT012 BKN016 BKN064 07/06 Q0999

Schedule Frequency

Route Map